Time;durP1;ratioP1;P1;durP2;ratioP2;P2;SDS_P1;SDS_P2;PMS_P1;PMS_P2;Temp;Humidity;BMP_temperature;BMP_pressure;BME280_temperature;BME280_humidity;BME280_pressure;Samples;Min_cycle;Max_cycle;Signal;HPM_P1;HPM_P2
2022/03/19 00:01:22;;;;;;;104.60;44.97;;;;;;;-0.49;43.12;102707.63;5082051;28;20131;-73
2022/03/19 00:03:50;;;;;;;98.60;43.00;;;;;;;-0.49;42.93;102703.31;5084122;28;20119;-73
2022/03/19 00:06:17;;;;;;;104.10;43.53;;;;;;;-0.49;43.28;102702.44;5083666;28;20055;-70
2022/03/19 00:08:45;;;;;;;101.70;45.70;;;;;;;-0.50;42.96;102704.19;5084014;28;20123;-72
2022/03/19 00:11:12;;;;;;;91.78;42.60;;;;;;;-0.52;42.85;102702.41;5084860;28;20087;-72
2022/03/19 00:13:39;;;;;;;91.13;40.78;;;;;;;-0.55;43.37;102710.16;5084428;28;20127;-72
2022/03/19 00:16:06;;;;;;;86.85;39.40;;;;;;;-0.61;43.42;102706.63;5084612;28;20052;-71
2022/03/19 00:18:34;;;;;;;87.38;40.33;;;;;;;-0.64;43.05;102703.97;5085448;28;20048;-69
2022/03/19 00:21:02;;;;;;;98.65;43.10;;;;;;;-0.67;43.21;102706.53;5084306;28;20369;-71
2022/03/19 00:23:29;;;;;;;91.13;42.80;;;;;;;-0.74;43.72;102712.50;5091437;28;20193;-72
2022/03/19 00:25:56;;;;;;;103.30;43.03;;;;;;;-0.77;43.48;102702.94;5108075;28;20032;-71
2022/03/19 00:28:23;;;;;;;87.82;40.35;;;;;;;-0.78;43.60;102703.78;5106942;28;20051;-70
2022/03/19 00:30:50;;;;;;;103.55;44.25;;;;;;;-0.76;43.90;102703.81;5093320;28;20530;-71
2022/03/19 00:33:17;;;;;;;89.95;43.00;;;;;;;-0.78;43.82;102710.72;5084418;28;20074;-71
2022/03/19 00:35:44;;;;;;;94.10;43.45;;;;;;;-0.81;43.96;102714.16;5083682;28;20082;-72
2022/03/19 00:38:14;;;;;;;99.30;44.60;;;;;;;-0.83;44.29;102708.06;5083870;28;20478;-71
2022/03/19 00:40:41;;;;;;;93.70;43.35;;;;;;;-0.85;44.11;102708.88;5083664;28;20390;-72
2022/03/19 00:43:08;;;;;;;106.70;48.30;;;;;;;-0.85;44.22;102703.69;5084027;28;20424;-72
2022/03/19 00:45:35;;;;;;;95.85;47.55;;;;;;;-0.88;44.46;102698.44;5083685;28;20122;-71
2022/03/19 00:48:02;;;;;;;93.65;46.50;;;;;;;-0.85;44.24;102698.50;5083504;28;20109;-72
2022/03/19 00:50:29;;;;;;;98.90;47.80;;;;;;;-0.87;44.47;102687.22;5084131;28;20040;-73
2022/03/19 00:52:56;;;;;;;101.35;43.60;;;;;;;-0.87;44.34;102689.81;5084157;28;20123;-72
2022/03/19 00:55:24;;;;;;;90.93;43.47;;;;;;;-0.87;44.33;102695.00;5086487;28;20052;-70
2022/03/19 00:57:51;;;;;;;81.20;39.80;;;;;;;-0.84;44.35;102687.28;5088098;28;20054;-71
2022/03/19 01:00:23;;;;;;;91.25;39.65;;;;;;;-0.79;44.61;102683.03;5086126;28;20052;-69
2022/03/19 01:02:51;;;;;;;90.68;38.78;;;;;;;-0.82;44.32;102681.25;5087734;28;20051;-71
2022/03/19 01:05:18;;;;;;;96.80;40.90;;;;;;;-0.84;44.05;102677.78;5086591;28;20100;-71
2022/03/19 01:07:47;;;;;;;104.28;45.05;;;;;;;-0.89;44.47;102676.81;5086880;28;20210;-71
2022/03/19 01:10:19;;;;;;;98.78;45.22;;;;;;;-0.98;44.49;102690.53;5087617;28;20131;-69
2022/03/19 01:12:48;;;;;;;101.88;47.97;;;;;;;-1.01;44.75;102684.44;5088079;28;20143;-70
2022/03/19 01:15:16;;;;;;;95.50;44.60;;;;;;;-1.00;44.79;102674.09;5087920;28;20048;-70
2022/03/19 01:17:43;;;;;;;105.75;42.42;;;;;;;-0.98;44.84;102681.88;5088204;28;20055;-71
2022/03/19 01:20:13;;;;;;;98.53;42.70;;;;;;;-1.00;44.61;102663.69;5088847;28;20636;-71
2022/03/19 01:22:40;;;;;;;96.57;40.58;;;;;;;-1.02;44.72;102675.78;5090471;28;20070;-70
2022/03/19 01:25:09;;;;;;;100.25;45.47;;;;;;;-1.10;44.48;102674.78;5088678;28;20048;-73
2022/03/19 01:27:37;;;;;;;97.75;44.22;;;;;;;-1.21;44.77;102678.94;5087315;28;20066;-70
2022/03/19 01:30:07;;;;;;;107.15;47.05;;;;;;;-1.31;44.65;102677.94;5085818;28;20075;-70
2022/03/19 01:32:35;;;;;;;106.43;52.88;;;;;;;-1.36;44.71;102682.19;5087429;28;20044;-72
2022/03/19 01:35:03;;;;;;;114.95;57.88;;;;;;;-1.43;45.15;102681.19;5087459;28;20051;-72
2022/03/19 01:37:30;;;;;;;138.45;76.30;;;;;;;-1.46;46.53;102688.94;5087731;28;20054;-73
2022/03/19 01:39:57;;;;;;;108.43;59.60;;;;;;;-1.47;47.31;102692.38;5088281;28;20119;-71
2022/03/19 01:42:25;;;;;;;105.55;48.40;;;;;;;-1.47;47.14;102692.38;5093822;28;20035;-72
2022/03/19 01:44:52;;;;;;;87.35;42.70;;;;;;;-1.43;46.47;102682.94;5098575;28;20038;-74
2022/03/19 01:47:21;;;;;;;98.50;42.70;;;;;;;-1.39;46.50;102684.72;5096292;28;20240;-72
2022/03/19 01:49:48;;;;;;;100.68;50.95;;;;;;;-1.40;46.31;102683.84;5096140;28;20525;-72
2022/03/19 01:52:15;;;;;;;107.53;60.35;;;;;;;-1.42;46.85;102680.38;5093953;28;20108;-72
2022/03/19 01:54:45;;;;;;;136.23;64.18;;;;;;;-1.42;47.61;102684.69;5098091;28;20193;-71
2022/03/19 01:57:16;;;;;;;137.18;70.13;;;;;;;-1.41;48.10;102686.41;5094647;28;20559;-72
2022/03/19 01:59:44;;;;;;;142.27;61.42;;;;;;;-1.40;47.67;102685.59;5087688;28;20109;-70
2022/03/19 02:02:11;;;;;;;107.13;45.72;;;;;;;-1.37;47.55;102678.72;5089017;28;20135;-72
2022/03/19 02:04:41;;;;;;;96.35;43.55;;;;;;;-1.35;47.36;102684.81;5096037;28;20044;-71
2022/03/19 02:07:10;;;;;;;109.40;46.30;;;;;;;-1.31;47.06;102677.09;5090125;28;20477;-71
2022/03/19 02:09:38;;;;;;;100.07;41.88;;;;;;;-1.35;47.00;102679.63;5088083;28;20146;-72
2022/03/19 02:12:06;;;;;;;85.28;39.08;;;;;;;-1.37;47.24;102673.53;5089829;28;20131;-71
2022/03/19 02:14:35;;;;;;;93.53;37.75;;;;;;;-1.40;46.94;102673.47;5090499;28;20388;-71
2022/03/19 02:17:05;;;;;;;96.30;42.85;;;;;;;-1.48;46.86;102680.25;5088236;28;20044;-71
2022/03/19 02:19:33;;;;;;;96.13;46.60;;;;;;;-1.53;46.61;102671.56;5088352;28;20405;-70
2022/03/19 02:22:04;;;;;;;88.10;46.15;;;;;;;-1.58;46.76;102681.81;5088938;28;20051;-69
2022/03/19 02:27:18;;;;;;;124.10;58.53;;;;;;;-1.68;47.54;102679.06;5089293;28;20051;-74
2022/03/19 02:29:45;;;;;;;119.50;59.33;;;;;;;-1.71;47.80;102682.47;5088086;28;20064;-73
2022/03/19 02:32:12;;;;;;;97.03;49.58;;;;;;;-1.71;47.64;102687.66;5088003;28;20048;-74
2022/03/19 02:34:39;;;;;;;104.25;53.70;;;;;;;-1.69;47.54;102698.91;5088795;28;20047;-73
2022/03/19 02:37:06;;;;;;;112.93;54.28;;;;;;;-1.70;47.71;102696.28;5088391;28;20079;-73
2022/03/19 02:39:35;;;;;;;118.57;55.15;;;;;;;-1.70;47.54;102693.72;5088338;28;20144;-73
2022/03/19 02:42:05;;;;;;;114.93;60.42;;;;;;;-1.70;47.76;102696.28;5087800;28;20048;-73
2022/03/19 02:44:32;;;;;;;122.65;59.42;;;;;;;-1.72;48.01;102696.25;5087765;28;20050;-71
2022/03/19 02:47:01;;;;;;;138.00;63.65;;;;;;;-1.73;47.88;102692.81;5087179;28;20051;-72
2022/03/19 02:49:29;;;;;;;124.57;61.60;;;;;;;-1.67;47.77;102710.19;5086892;28;20056;-71
2022/03/19 02:51:57;;;;;;;168.80;78.70;;;;;;;-1.65;48.26;102707.63;5067879;28;20516;-72
2022/03/19 02:54:26;;;;;;;165.25;88.38;;;;;;;-1.62;48.46;102707.66;5087564;28;20054;-70
2022/03/19 02:56:55;;;;;;;167.88;79.32;;;;;;;-1.58;48.59;102704.28;5087344;28;20109;-70
2022/03/19 02:59:24;;;;;;;151.43;75.00;;;;;;;-1.57;48.73;102709.50;5086929;28;20131;-71
2022/03/19 03:01:52;;;;;;;155.55;74.07;;;;;;;-1.57;48.92;102701.72;5087155;28;20050;-71
2022/03/19 03:04:19;;;;;;;154.63;68.15;;;;;;;-1.56;48.82;102700.00;5087327;28;20510;-74
2022/03/19 03:06:49;;;;;;;142.77;65.90;;;;;;;-1.57;48.87;102699.13;5088118;28;20509;-74
2022/03/19 03:09:19;;;;;;;120.13;53.08;;;;;;;-1.61;48.53;102699.91;5088724;28;20591;-74
2022/03/19 03:11:47;;;;;;;116.10;56.83;;;;;;;-1.61;48.44;102696.44;5088961;28;20048;-75
2022/03/19 03:14:15;;;;;;;112.68;51.28;;;;;;;-1.62;48.64;102697.28;5088586;28;20048;-72
2022/03/19 03:16:43;;;;;;;118.53;55.00;;;;;;;-1.66;48.60;102696.34;5087214;28;20044;-72
2022/03/19 03:19:12;;;;;;;109.90;52.03;;;;;;;-1.67;48.45;102693.75;5088259;28;20375;-73
2022/03/19 03:21:40;;;;;;;129.30;56.85;;;;;;;-1.72;48.45;102688.50;5087926;28;20348;-71
2022/03/19 03:24:08;;;;;;;134.68;65.07;;;;;;;-1.75;48.54;102694.50;5087508;28;20454;-73
2022/03/19 03:26:36;;;;;;;137.18;74.78;;;;;;;-1.83;49.14;102696.06;5086635;28;20058;-71
2022/03/19 03:29:04;;;;;;;169.60;89.28;;;;;;;-1.90;50.17;102696.81;5087238;28;20051;-72
2022/03/19 03:31:34;;;;;;;194.18;89.78;;;;;;;-1.92;50.65;102691.59;5085979;28;20044;-73
2022/03/19 03:34:01;;;;;;;111.18;52.58;;;;;;;-1.89;49.78;102688.19;5087412;28;20044;-73
2022/03/19 03:36:28;;;;;;;125.18;56.20;;;;;;;-1.90;49.62;102693.34;5087624;28;20131;-73
2022/03/19 03:38:55;;;;;;;110.43;52.88;;;;;;;-1.91;49.73;102695.03;5086870;28;20099;-73
2022/03/19 03:41:22;;;;;;;130.90;62.15;;;;;;;-2.00;49.56;102698.38;5090745;28;20076;-72
2022/03/19 03:43:49;;;;;;;151.15;70.57;;;;;;;-2.01;49.69;102698.31;5090684;28;20070;-72
2022/03/19 03:46:16;;;;;;;119.63;58.47;;;;;;;-2.03;49.31;102695.69;5086006;28;20041;-72
2022/03/19 03:48:45;;;;;;;156.25;63.45;;;;;;;-2.01;49.49;102700.91;5086968;28;20518;-74
2022/03/19 03:51:14;;;;;;;121.20;53.65;;;;;;;-1.99;49.41;102704.41;5087623;28;20051;-75
2022/03/19 03:53:42;;;;;;;124.40;53.42;;;;;;;-2.00;48.96;102702.66;5087487;28;20040;-73
2022/03/19 03:56:09;;;;;;;141.60;56.90;;;;;;;-2.02;49.00;102696.56;5087494;28;20056;-73
2022/03/19 03:58:37;;;;;;;125.80;55.95;;;;;;;-2.08;48.75;102696.47;5087336;28;20641;-72
2022/03/19 04:01:05;;;;;;;110.32;56.47;;;;;;;-2.09;49.03;102700.75;5085547;28;20079;-73
2022/03/19 04:03:32;;;;;;;119.45;55.53;;;;;;;-2.13;48.76;102698.94;5087334;28;20488;-73
2022/03/19 04:06:00;;;;;;;110.57;47.97;;;;;;;-2.15;48.71;102696.31;5087005;28;20044;-73
2022/03/19 04:08:27;;;;;;;112.85;51.55;;;;;;;-2.15;48.89;102704.09;5086853;28;20518;-73
2022/03/19 04:10:54;;;;;;;114.55;50.85;;;;;;;-2.18;48.77;102706.66;5088697;28;20173;-73
2022/03/19 04:13:21;;;;;;;109.47;47.90;;;;;;;-2.18;48.76;102714.41;5090175;28;20055;-73
2022/03/19 04:15:49;;;;;;;107.60;51.03;;;;;;;-2.19;48.56;102710.06;5087330;28;20442;-75
2022/03/19 04:18:16;;;;;;;102.82;50.70;;;;;;;-2.17;48.42;102715.28;5091475;28;20052;-73
2022/03/19 04:20:43;;;;;;;116.93;52.92;;;;;;;-2.21;48.68;102708.31;5090191;28;20058;-73
2022/03/19 04:23:11;;;;;;;103.82;47.80;;;;;;;-2.20;48.55;102707.44;5089568;28;20182;-71
2022/03/19 04:25:41;;;;;;;106.40;49.42;;;;;;;-2.19;48.51;102710.06;5088219;28;20058;-74
2022/03/19 04:28:11;;;;;;;109.22;45.45;;;;;;;-2.23;48.40;102700.50;5088512;28;20127;-72
2022/03/19 04:30:40;;;;;;;120.00;48.40;;;;;;;-2.28;48.51;102709.88;5088503;28;20581;-72
2022/03/19 04:33:07;;;;;;;123.22;52.03;;;;;;;-2.34;48.70;102710.63;5089211;28;20052;-70
2022/03/19 04:38:22;;;;;;;103.87;44.60;;;;;;;-2.36;48.68;102711.44;5088821;28;20051;-72
2022/03/19 04:40:53;;;;;;;95.00;42.75;;;;;;;-2.35;48.65;102718.38;5088949;28;20051;-73
2022/03/19 04:43:20;;;;;;;89.13;43.35;;;;;;;-2.36;48.51;102716.59;5089607;28;20131;-73
2022/03/19 04:45:48;;;;;;;114.22;51.78;;;;;;;-2.37;48.62;102720.06;5088784;28;20229;-71
2022/03/19 04:48:15;;;;;;;147.95;77.72;;;;;;;-2.43;49.44;102715.63;5087945;28;20051;-71
2022/03/19 04:50:44;;;;;;;146.85;77.35;;;;;;;-2.50;50.39;102719.78;5091925;28;20123;-70
2022/03/19 04:53:12;;;;;;;142.02;70.25;;;;;;;-2.53;50.47;102719.72;5090102;28;20043;-72
2022/03/19 04:55:41;;;;;;;142.75;76.80;;;;;;;-2.54;51.14;102723.16;5087360;28;20060;-70
2022/03/19 04:58:09;;;;;;;139.73;68.15;;;;;;;-2.46;50.99;102722.44;5088753;28;20048;-71
2022/03/19 05:00:36;;;;;;;134.20;69.93;;;;;;;-2.37;51.29;102725.22;5086648;28;20048;-71
2022/03/19 05:03:03;;;;;;;142.82;72.70;;;;;;;-2.28;51.36;102728.00;5087525;28;20109;-73
2022/03/19 05:05:30;;;;;;;119.60;65.20;;;;;;;-2.15;51.14;102732.56;5087554;28;20044;-72
2022/03/19 05:07:58;;;;;;;120.55;62.50;;;;;;;-2.05;51.08;102727.56;5086832;28;20060;-72
2022/03/19 05:13:11;;;;;;;108.72;50.22;;;;;;;-1.91;50.65;102728.72;5087740;28;20135;-73
2022/03/19 05:15:38;;;;;;;91.15;49.78;;;;;;;-1.87;50.51;102729.66;5087772;28;20051;-70
2022/03/19 05:18:05;;;;;;;96.75;49.35;;;;;;;-1.80;50.36;102735.00;5086290;28;20048;-70
2022/03/19 05:20:32;;;;;;;133.98;58.78;;;;;;;-1.70;50.16;102730.84;5087892;28;20050;-71
2022/03/19 05:22:59;;;;;;;114.35;55.50;;;;;;;-1.64;49.79;102736.16;5087215;28;20101;-72
2022/03/19 05:25:26;;;;;;;137.48;61.53;;;;;;;-1.57;50.16;102742.28;5088024;28;20808;-73
2022/03/19 05:27:53;;;;;;;123.22;61.67;;;;;;;-1.50;49.81;102744.16;5088041;28;20046;-73
2022/03/19 05:30:22;;;;;;;129.77;61.08;;;;;;;-1.43;49.85;102746.00;5086169;28;20058;-73
2022/03/19 05:32:50;;;;;;;122.38;65.13;;;;;;;-1.35;49.69;102749.63;5087925;28;20047;-75
2022/03/19 05:35:18;;;;;;;131.93;62.10;;;;;;;-1.25;49.75;102744.59;5087177;28;20046;-74
2022/03/19 05:37:46;;;;;;;133.75;61.40;;;;;;;-1.18;49.29;102746.44;5087860;28;20044;-72
2022/03/19 05:40:17;;;;;;;129.65;59.65;;;;;;;-1.08;49.43;102760.41;5087784;28;20044;-73
2022/03/19 05:42:44;;;;;;;120.53;58.80;;;;;;;-1.00;49.23;102757.09;5092958;28;20040;-72
2022/03/19 05:45:14;;;;;;;124.22;60.20;;;;;;;-0.93;49.28;102759.78;5094673;28;20092;-73
2022/03/19 05:47:43;;;;;;;119.43;61.00;;;;;;;-0.85;49.10;102755.59;5094834;28;20137;-71
2022/03/19 05:50:11;;;;;;;127.90;59.85;;;;;;;-0.77;49.19;102770.41;5096462;28;20072;-72
2022/03/19 05:52:38;;;;;;;120.22;60.53;;;;;;;-0.67;49.09;102760.16;5098364;28;20040;-73
2022/03/19 05:55:06;;;;;;;120.40;55.72;;;;;;;-0.59;48.69;102763.75;5097916;28;20088;-72
2022/03/19 05:57:33;;;;;;;120.60;58.65;;;;;;;-0.50;49.23;102765.63;5097337;28;20354;-74
2022/03/19 06:00:00;;;;;;;125.90;60.22;;;;;;;-0.44;49.13;102766.56;5089435;28;20100;-75
2022/03/19 06:02:27;;;;;;;104.07;59.30;;;;;;;-0.33;49.30;102771.03;5102103;28;20510;-72
2022/03/19 06:04:56;;;;;;;96.93;54.00;;;;;;;-0.25;49.29;102778.06;5093767;28;20071;-74
2022/03/19 06:07:23;;;;;;;90.88;48.95;;;;;;;-0.17;49.20;102774.69;5088390;28;20131;-72
2022/03/19 06:09:50;;;;;;;102.95;47.40;;;;;;;-0.08;49.29;102778.28;5087580;28;20082;-73
2022/03/19 06:12:16;;;;;;;90.63;48.33;;;;;;;0.07;48.99;102781.91;5087378;28;20123;-72
2022/03/19 06:14:43;;;;;;;88.15;46.70;;;;;;;0.15;48.51;102770.75;5087576;28;20428;-76
2022/03/19 06:17:11;;;;;;;91.72;45.35;;;;;;;0.30;48.58;102775.25;5088013;28;20070;-74
2022/03/19 06:19:39;;;;;;;86.40;46.05;;;;;;;0.41;48.77;102777.94;5085642;28;20079;-75
2022/03/19 06:22:07;;;;;;;85.32;41.20;;;;;;;0.54;48.48;102781.53;5085956;28;20059;-72
2022/03/19 06:24:34;;;;;;;75.68;38.85;;;;;;;0.69;48.55;102786.03;5086790;28;20040;-72
2022/03/19 06:27:01;;;;;;;77.80;40.08;;;;;;;0.82;48.26;102784.41;5087027;28;20048;-71
2022/03/19 06:29:28;;;;;;;72.03;36.95;;;;;;;0.92;48.23;102787.13;5085170;28;20044;-73
2022/03/19 06:31:55;;;;;;;81.30;37.88;;;;;;;1.09;47.86;102784.63;5084749;28;20118;-72
2022/03/19 06:34:22;;;;;;;76.90;36.65;;;;;;;1.28;47.55;102788.25;5086715;28;20076;-71
2022/03/19 06:39:35;;;;;;;69.15;35.35;;;;;;;1.67;47.52;102794.56;5085108;28;20050;-72
2022/03/19 06:42:03;;;;;;;71.90;34.25;;;;;;;1.87;47.27;102799.00;5086368;28;20050;-72
2022/03/19 06:44:30;;;;;;;54.53;25.65;;;;;;;2.08;47.10;102806.91;5090598;28;20120;-71
2022/03/19 06:46:57;;;;;;;42.08;21.85;;;;;;;2.28;46.88;102803.50;5107237;28;20039;-77
2022/03/19 06:49:26;;;;;;;45.60;23.65;;;;;;;2.49;46.74;102805.31;5106002;28;20357;-73
2022/03/19 06:51:52;;;;;;;58.70;27.50;;;;;;;2.69;46.46;102813.16;5105918;28;20481;-72
2022/03/19 06:54:20;;;;;;;41.45;22.15;;;;;;;2.87;46.13;102809.72;5110807;28;20138;-76
2022/03/19 06:56:49;;;;;;;40.80;22.17;;;;;;;3.11;45.74;102814.06;5111061;28;20095;-78
2022/03/19 06:59:16;;;;;;;37.67;21.08;;;;;;;3.29;45.24;102813.16;5120585;28;20043;-71
2022/03/19 07:01:42;;;;;;;36.83;21.10;;;;;;;3.52;44.98;102814.91;5105740;28;20135;-70
2022/03/19 07:04:09;;;;;;;40.17;20.85;;;;;;;3.73;44.81;102819.22;5104124;28;20061;-70
2022/03/19 07:06:36;;;;;;;38.78;21.95;;;;;;;3.88;44.33;102816.53;5104535;28;20649;-73
2022/03/19 07:09:04;;;;;;;29.10;19.05;;;;;;;4.06;44.38;102809.50;5105302;28;20135;-72
2022/03/19 07:11:31;;;;;;;37.03;21.05;;;;;;;4.25;43.79;102818.13;5102541;28;20048;-72
2022/03/19 07:14:01;;;;;;;34.13;17.55;;;;;;;4.44;43.54;102818.91;5103358;28;20100;-71
2022/03/19 07:16:28;;;;;;;28.30;17.95;;;;;;;4.64;43.05;102824.88;5104171;28;20113;-74
2022/03/19 07:18:55;;;;;;;33.65;18.80;;;;;;;4.80;42.97;102823.03;5103408;28;20058;-71
2022/03/19 07:21:23;;;;;;;41.08;25.75;;;;;;;4.95;42.45;102827.28;5102631;28;20052;-72
2022/03/19 07:23:50;;;;;;;39.42;21.50;;;;;;;5.05;41.98;102820.25;5102774;28;20066;-74
2022/03/19 07:26:17;;;;;;;27.17;18.27;;;;;;;5.20;41.91;102824.47;5102992;28;20162;-73
2022/03/19 07:28:44;;;;;;;27.65;17.70;;;;;;;5.31;41.65;102820.88;5102104;28;20613;-72
2022/03/19 07:31:13;;;;;;;35.28;15.98;;;;;;;5.48;41.15;102825.94;5100905;28;20118;-72
2022/03/19 07:33:40;;;;;;;31.88;18.15;;;;;;;5.67;40.94;102817.88;5102158;28;20095;-71
2022/03/19 07:36:07;;;;;;;39.38;18.48;;;;;;;5.83;40.67;102823.84;5101503;28;20046;-71
2022/03/19 07:38:34;;;;;;;32.60;19.13;;;;;;;6.00;40.50;102824.56;5101292;28;20044;-72
2022/03/19 07:43:46;;;;;;;31.27;19.90;;;;;;;6.32;39.59;102828.53;5102600;28;20769;-73
2022/03/19 07:46:14;;;;;;;31.90;18.58;;;;;;;6.43;39.19;102826.63;5101794;28;20620;-72
2022/03/19 07:48:41;;;;;;;32.17;20.05;;;;;;;6.60;39.07;102828.13;5101187;28;20144;-70
2022/03/19 07:51:09;;;;;;;33.10;17.70;;;;;;;6.78;38.70;102829.63;5102013;28;20059;-73
2022/03/19 07:53:37;;;;;;;24.83;16.50;;;;;;;7.00;38.49;102838.88;5090342;28;20046;-72
2022/03/19 07:56:06;;;;;;;37.75;17.17;;;;;;;7.15;37.84;102829.00;5094586;28;20060;-71
2022/03/19 07:58:33;;;;;;;25.67;14.43;;;;;;;7.30;37.54;102836.66;5083809;28;20040;-71
2022/03/19 08:01:00;;;;;;;24.77;16.13;;;;;;;7.40;37.40;102832.97;5086875;28;20040;-72
2022/03/19 08:03:28;;;;;;;33.42;17.52;;;;;;;7.55;37.14;102841.50;5093967;28;20044;-71
2022/03/19 08:05:55;;;;;;;37.40;17.80;;;;;;;7.69;36.75;102828.94;5055109;28;20065;-71
2022/03/19 08:08:22;;;;;;;29.20;17.42;;;;;;;7.74;36.39;102835.00;5084954;28;20077;-71
2022/03/19 08:10:49;;;;;;;26.48;18.33;;;;;;;7.87;35.96;102842.63;5088506;28;20626;-74
2022/03/19 08:13:18;;;;;;;28.17;17.20;;;;;;;7.93;35.75;102847.78;5090480;28;20040;-73
2022/03/19 08:15:45;;;;;;;28.70;18.52;;;;;;;8.02;35.39;102840.56;5100812;28;20423;-73
2022/03/19 08:18:13;;;;;;;25.45;16.52;;;;;;;8.14;35.25;102830.66;5081005;28;20054;-73
2022/03/19 08:20:41;;;;;;;26.52;16.05;;;;;;;8.22;34.72;102828.75;5090270;28;20051;-71
2022/03/19 08:23:10;;;;;;;22.40;15.65;;;;;;;8.41;34.36;102829.22;5088822;28;20078;-71
2022/03/19 08:25:37;;;;;;;25.63;14.20;;;;;;;8.60;33.45;102833.19;5089373;28;20048;-73
2022/03/19 08:28:05;;;;;;;23.95;13.38;;;;;;;8.78;32.61;102833.66;5088751;28;20113;-73
2022/03/19 08:30:32;;;;;;;22.38;12.63;;;;;;;8.92;32.41;102836.00;5090083;28;20165;-71
2022/03/19 08:32:59;;;;;;;17.65;12.30;;;;;;;9.06;32.01;102843.56;5091986;28;20513;-71
2022/03/19 08:35:26;;;;;;;19.73;11.15;;;;;;;9.19;31.85;102832.66;5089948;28;20046;-73
2022/03/19 08:40:15;;;;;;;18.27;11.02;;;;;;;9.35;31.22;102832.28;5091204;28;20441;-73
2022/03/19 08:40:41;;;;;;;18.45;12.82;;;;;;;9.46;30.51;102834.63;5092220;28;20398;-76
2022/03/19 08:43:08;;;;;;;18.73;11.18;;;;;;;9.53;30.17;102828.28;5084673;28;20686;-77
2022/03/19 08:45:34;;;;;;;15.38;10.93;;;;;;;9.65;29.61;102835.88;5080670;28;20052;-70
2022/03/19 08:48:01;;;;;;;17.70;11.68;;;;;;;9.83;29.44;102833.63;5082588;28;20048;-72
2022/03/19 08:50:28;;;;;;;13.48;8.45;;;;;;;9.98;29.08;102825.28;5081758;28;20104;-72
2022/03/19 08:53:03;;;;;;;11.88;8.02;;;;;;;9.98;28.88;102830.56;5084526;28;20089;-75
2022/03/19 08:55:30;;;;;;;15.95;10.40;;;;;;;9.95;28.13;102831.50;5087028;28;20150;-75
2022/03/19 08:57:58;;;;;;;13.75;9.73;;;;;;;9.94;26.99;102831.56;5087030;28;20504;-78
2022/03/19 09:00:25;;;;;;;14.38;9.48;;;;;;;10.04;27.13;102840.06;5095565;28;20092;-76
2022/03/19 09:02:52;;;;;;;17.05;9.48;;;;;;;10.05;26.90;102831.25;5103821;28;20051;-73
2022/03/19 09:05:20;;;;;;;14.32;9.32;;;;;;;10.06;26.76;102828.53;5103922;28;20357;-73
2022/03/19 09:07:47;;;;;;;11.98;8.43;;;;;;;10.08;26.24;102834.66;5081535;28;20056;-73
2022/03/19 09:10:15;;;;;;;16.48;10.00;;;;;;;10.14;26.31;102841.53;5081953;28;20058;-76
2022/03/19 09:12:42;;;;;;;16.17;11.70;;;;;;;10.26;26.47;102838.53;5081412;28;20048;-74
2022/03/19 09:15:11;;;;;;;16.02;10.27;;;;;;;10.41;26.26;102834.59;5083276;28;20044;-77
2022/03/19 09:17:39;;;;;;;19.42;10.63;;;;;;;10.40;25.88;102835.50;5088135;28;20072;-78
2022/03/19 09:20:10;;;;;;;16.05;9.82;;;;;;;10.49;25.90;102827.28;5095000;28;20047;-78
2022/03/19 09:22:37;;;;;;;15.80;9.73;;;;;;;10.56;25.42;102835.91;5092756;28;20046;-77
2022/03/19 09:25:05;;;;;;;12.10;9.32;;;;;;;10.62;25.54;102840.13;5084392;28;20096;-73
2022/03/19 09:27:34;;;;;;;18.65;11.13;;;;;;;10.63;25.65;102834.78;5085081;28;20051;-74
2022/03/19 09:30:01;;;;;;;18.52;9.93;;;;;;;10.66;25.41;102839.09;5083876;28;20283;-72
2022/03/19 09:32:29;;;;;;;16.27;11.80;;;;;;;10.74;25.29;102842.38;5084717;28;20044;-76
2022/03/19 09:34:56;;;;;;;17.98;10.85;;;;;;;10.80;25.04;102841.31;5085274;28;20048;-75
2022/03/19 09:37:23;;;;;;;16.08;10.82;;;;;;;10.83;24.97;102842.09;5085057;28;20043;-76
2022/03/19 09:39:50;;;;;;;19.20;12.88;;;;;;;10.85;24.85;102842.91;5083672;28;20653;-78
2022/03/19 09:42:17;;;;;;;20.10;13.00;;;;;;;10.91;24.73;102841.81;5084784;28;20574;-77
2022/03/19 09:44:50;;;;;;;17.33;12.48;;;;;;;10.98;24.50;102839.84;5090101;28;20264;-72
2022/03/19 09:47:17;;;;;;;17.80;11.45;;;;;;;10.99;24.58;102839.81;5084673;28;20381;-73
2022/03/19 09:49:46;;;;;;;13.90;10.52;;;;;;;11.05;24.51;102834.31;5081875;28;20059;-75
2022/03/19 09:52:14;;;;;;;16.33;10.07;;;;;;;11.09;24.03;102837.72;5100755;28;20048;-73
2022/03/19 09:54:41;;;;;;;15.88;8.60;;;;;;;11.02;23.88;102838.84;5104117;28;20510;-73
2022/03/19 09:57:08;;;;;;;12.00;8.38;;;;;;;11.00;24.02;102836.25;5102297;28;20052;-76
2022/03/19 09:59:36;;;;;;;14.90;11.10;;;;;;;11.05;23.93;102834.31;5102638;28;20047;-74
2022/03/19 10:02:10;;;;;;;16.27;10.10;;;;;;;11.05;23.73;102831.66;5101377;28;20588;-78
2022/03/19 10:04:40;;;;;;;15.02;10.32;;;;;;;11.02;23.38;102833.53;5103890;28;20588;-76
2022/03/19 10:09:52;;;;;;;14.43;8.43;;;;;;;11.14;23.69;102825.19;5102847;28;20051;-75
2022/03/19 10:12:21;;;;;;;16.17;10.23;;;;;;;11.31;23.32;102826.41;5102413;28;20513;-78
2022/03/19 10:14:50;;;;;;;17.60;10.70;;;;;;;11.43;23.23;102831.28;5102673;28;20047;-77
2022/03/19 10:17:32;;;;;;;15.80;8.88;;;;;;;11.55;23.34;102835.28;5102659;28;20044;-75
2022/03/19 10:20:00;;;;;;;15.07;10.70;;;;;;;11.58;22.84;102841.34;5101558;28;20104;-75
2022/03/19 10:22:29;;;;;;;13.07;8.02;;;;;;;11.56;22.78;102837.88;5102937;28;20686;-74
2022/03/19 10:24:59;;;;;;;15.68;11.25;;;;;;;11.61;22.70;102833.31;5103366;28;20051;-75
2022/03/19 10:27:31;;;;;;;15.00;8.65;;;;;;;11.82;22.84;102823.69;5103487;28;20667;-75
2022/03/19 10:30:10;;;;;;;23.95;11.15;;;;;;;11.79;22.30;102825.59;5105114;28;20474;-78
2022/03/19 10:32:53;;;;;;;10.85;6.63;;;;;;;11.88;22.85;102817.31;5109068;28;20086;-77
2022/03/19 10:35:29;;;;;;;14.98;8.10;;;;;;;11.93;22.53;102822.47;5101892;28;20067;-77
2022/03/19 10:37:57;;;;;;;20.33;10.23;;;;;;;11.97;22.53;102819.66;5104477;28;20051;-77
2022/03/19 10:40:37;;;;;;;13.45;9.43;;;;;;;12.15;22.13;102811.94;5105023;28;20653;-76
2022/03/19 10:43:07;;;;;;;18.50;10.75;;;;;;;12.09;22.34;102828.94;5103392;28;20134;-75
2022/03/19 10:45:34;;;;;;;17.88;13.20;;;;;;;12.03;22.01;102822.09;5095015;28;20043;-74
2022/03/19 10:48:03;;;;;;;14.88;9.23;;;;;;;12.11;21.93;102820.94;5081654;28;20060;-75
2022/03/19 10:50:30;;;;;;;14.73;9.40;;;;;;;12.07;22.17;102824.63;5083583;28;20055;-79
2022/03/19 10:53:00;;;;;;;12.77;9.60;;;;;;;12.27;22.10;102813.25;5083805;28;20137;-76
2022/03/19 10:55:27;;;;;;;19.42;10.38;;;;;;;12.44;22.01;102808.13;5084282;28;20736;-76
2022/03/19 10:57:54;;;;;;;12.93;8.02;;;;;;;12.38;21.99;102811.91;5095020;28;20067;-77
2022/03/19 11:00:22;;;;;;;11.82;9.35;;;;;;;12.32;21.99;102811.31;5096235;28;20131;-77
2022/03/19 11:02:54;;;;;;;15.68;9.35;;;;;;;12.40;22.00;102807.41;5099057;28;20058;-76
2022/03/19 11:05:24;;;;;;;14.82;9.23;;;;;;;12.27;21.83;102807.97;5097095;28;20039;-80
2022/03/19 11:07:53;;;;;;;10.48;7.30;;;;;;;12.13;21.91;102804.03;5103685;28;20067;-82
2022/03/19 11:10:22;;;;;;;12.68;8.43;;;;;;;12.01;21.70;102801.84;5101283;28;20047;-80
2022/03/19 11:12:52;;;;;;;12.10;8.57;;;;;;;11.90;21.93;102799.59;5097700;27;20043;-78
2022/03/19 11:15:20;;;;;;;11.73;8.98;;;;;;;11.96;21.78;102796.75;5091390;28;20105;-79
2022/03/19 11:17:49;;;;;;;15.40;8.98;;;;;;;12.02;21.75;102790.34;5092295;28;20062;-79
2022/03/19 11:20:17;;;;;;;17.00;10.95;;;;;;;12.13;21.91;102784.63;5101723;28;20048;-76
2022/03/19 11:22:48;;;;;;;14.02;8.27;;;;;;;12.13;21.59;102787.28;5091070;28;20132;-76
2022/03/19 11:25:22;;;;;;;12.38;8.25;;;;;;;11.94;21.37;102784.47;5093093;28;20158;-74
2022/03/19 11:27:53;;;;;;;12.85;8.52;;;;;;;11.88;21.17;102789.97;5095092;28;20047;-76
2022/03/19 11:30:23;;;;;;;10.63;7.50;;;;;;;11.85;21.25;102785.66;5087211;28;20138;-76